Strona główna
METAR-TAF:

METAR-TAF

Lotnisko :

Saint-Dizier, Francja

Szerokość geograficzna: 48-38N, Długość geograficzna: 004-54E, wysokość: 139 m

Aktualna obserwacja pogody

Raport powstał 35 minut temu, godzina 18:30 UTC
Wiatr 3 kt od północ
Temperatura 26°C
Wilgotność 28%
Ciśnienie 1013 hPa
Widzialność 10 km lub więcej
Brak chmur poniżej 1500 m i brak chmur cumulonimbus

METAR: LFSI 171830Z AUTO 35003KT CAVOK 26/06 Q1013

czas: 21:05 (19:05 UTC)

Prognoza

Raport powstał 5 godziny i 5 minut temu, godzina 14:00 UTC
Prognoza ważna od 17 godzina 15 UTC do 18 godzina 15 UTC
Wiatr 10 kt od zachodnio-północny zachód
Widzialność 10 km lub więcej
Brak chmur poniżej 1500 m i brak chmur cumulonimbus
Stopniowe zmiany
od 17 godzina 17 UTC do 17 godzina 19 UTC
Wiatr 2 kt z kierunków zmiennych

TAF: LFSI 171400Z 1715/1815 30010KT CAVOK BECMG 1717/1719 VRB02KT

Obserwacja i prognoza pogody dla ponad 4000 lotnisk (raport METAR i TAF).

Dostępne stacje oznaczono żółtymi i czerwonymi punktami na mapie.

Najedź kursorem aby zobaczyć nazwę stacji.

Kliknij aby zobaczyć obserwacje i prognozy pogody.

Aby zmienić mapę: kliknij na zielony przycisk z czarnym krzyżykiem, aby powiększyć; na zielony przycisk z myślnikiem, aby pomniejszyć; na zielone strzałki, aby przejść do map sąsiednich.


METAR-TAF: